Time;durP1;ratioP1;P1;durP2;ratioP2;P2;SDS_P1;SDS_P2;PMS_P1;PMS_P2;Temp;Humidity;BMP_temperature;BMP_pressure;BME280_temperature;BME280_humidity;BME280_pressure;Samples;Min_cycle;Max_cycle;Signal;HPM_P1;HPM_P2
2024/01/20 00:01:30;;;;;;;45.77;23.87;;;;;;;;;;5015311;28;20229;-77
2024/01/20 00:03:56;;;;;;;62.90;28.53;;;;;;;;;;5006383;28;20260;-77
2024/01/20 00:06:22;;;;;;;52.03;26.17;;;;;;;;;;4998705;28;20187;-77
2024/01/20 00:08:48;;;;;;;68.77;31.90;;;;;;;;;;5016863;28;20229;-76
2024/01/20 00:11:14;;;;;;;62.70;28.50;;;;;;;;;;5024306;28;20232;-76
2024/01/20 00:13:42;;;;;;;50.77;23.33;;;;;;;;;;5009511;28;20658;-74
2024/01/20 00:16:09;;;;;;;51.00;24.23;;;;;;;;;;4983471;28;20183;-75
2024/01/20 00:18:35;;;;;;;34.80;18.13;;;;;;;;;;5022243;28;20187;-79
2024/01/20 00:21:01;;;;;;;35.03;18.53;;;;;;;;;;4942985;28;20198;-77
2024/01/20 00:23:27;;;;;;;38.97;19.17;;;;;;;;;;5021352;28;20222;-76
2024/01/20 00:25:53;;;;;;;36.80;19.60;;;;;;;;;;5026141;28;20837;-76
2024/01/20 00:28:20;;;;;;;41.77;20.73;;;;;;;;;;5027208;28;20276;-77
2024/01/20 00:30:46;;;;;;;46.43;21.93;;;;;;;;;;5015180;28;20636;-77
2024/01/20 00:33:12;;;;;;;44.00;20.63;;;;;;;;;;5023209;28;20176;-77
2024/01/20 00:35:42;;;;;;;28.27;15.70;;;;;;;;;;5051600;28;20234;-79
2024/01/20 00:38:08;;;;;;;21.40;13.47;;;;;;;;;;5025759;28;20277;-80
2024/01/20 00:40:35;;;;;;;24.37;14.07;;;;;;;;;;5026291;28;20221;-78
2024/01/20 00:43:02;;;;;;;24.60;13.73;;;;;;;;;;4988381;28;20261;-80
2024/01/20 00:45:28;;;;;;;25.07;14.73;;;;;;;;;;5008375;28;20227;-75
2024/01/20 00:47:54;;;;;;;23.30;14.00;;;;;;;;;;4970871;28;20269;-77
2024/01/20 00:50:20;;;;;;;22.90;14.47;;;;;;;;;;5019835;28;20965;-76
2024/01/20 00:52:46;;;;;;;23.17;14.00;;;;;;;;;;5008757;28;20206;-78
2024/01/20 00:55:13;;;;;;;21.73;13.73;;;;;;;;;;5021965;28;20206;-78
2024/01/20 00:57:39;;;;;;;23.50;13.13;;;;;;;;;;5019806;28;20262;-77
2024/01/20 01:00:09;;;;;;;24.23;13.97;;;;;;;;;;5027676;28;20513;-78
2024/01/20 01:02:39;;;;;;;27.57;14.83;;;;;;;;;;5010862;28;20188;-78
2024/01/20 01:05:06;;;;;;;21.93;13.80;;;;;;;;;;5024012;28;20484;-76
2024/01/20 01:07:32;;;;;;;25.30;15.23;;;;;;;;;;5025016;28;20811;-77
2024/01/20 01:09:59;;;;;;;29.23;16.20;;;;;;;;;;5023074;28;20430;-77
2024/01/20 01:12:25;;;;;;;32.93;16.33;;;;;;;;;;5010110;28;20434;-77
2024/01/20 01:14:51;;;;;;;27.97;15.60;;;;;;;;;;5005950;28;20214;-77
2024/01/20 01:17:17;;;;;;;27.27;15.37;;;;;;;;;;5021530;28;20968;-77
2024/01/20 01:19:44;;;;;;;28.30;15.83;;;;;;;;;;5019633;28;20439;-78
2024/01/20 01:22:10;;;;;;;24.63;14.67;;;;;;;;;;5029239;28;20823;-78
2024/01/20 01:24:37;;;;;;;23.50;14.60;;;;;;;;;;5031993;28;20541;-78
2024/01/20 01:27:04;;;;;;;24.53;14.27;;;;;;;;;;5000469;28;20992;-78
2024/01/20 01:29:30;;;;;;;23.17;13.53;;;;;;;;;;5027029;28;20512;-78
2024/01/20 01:31:57;;;;;;;27.23;14.77;;;;;;;;;;5026020;28;20434;-77
2024/01/20 01:34:23;;;;;;;25.13;13.93;;;;;;;;;;4974693;28;20203;-77
2024/01/20 01:36:49;;;;;;;24.87;14.77;;;;;;;;;;4946560;28;20735;-78
2024/01/20 01:39:17;;;;;;;24.67;14.03;;;;;;;;;;5023856;28;20456;-78
2024/01/20 01:41:44;;;;;;;25.07;15.17;;;;;;;;;;5020773;28;20429;-78
2024/01/20 01:44:10;;;;;;;25.87;14.37;;;;;;;;;;5019400;28;20294;-78
2024/01/20 01:46:36;;;;;;;22.83;14.23;;;;;;;;;;5021949;28;20532;-76
2024/01/20 01:49:04;;;;;;;23.23;13.60;;;;;;;;;;5014798;28;20184;-76
2024/01/20 01:51:31;;;;;;;22.57;13.93;;;;;;;;;;5020719;28;20437;-78
2024/01/20 01:53:59;;;;;;;21.83;13.23;;;;;;;;;;5023458;28;20583;-77
2024/01/20 01:56:25;;;;;;;22.27;13.47;;;;;;;;;;5022601;28;20179;-78
2024/01/20 01:58:51;;;;;;;21.77;13.03;;;;;;;;;;5026261;28;20422;-77
2024/01/20 02:01:17;;;;;;;22.93;14.10;;;;;;;;;;5021734;28;20532;-77
2024/01/20 02:03:43;;;;;;;28.33;14.83;;;;;;;;;;5002305;28;20991;-78
2024/01/20 02:06:10;;;;;;;22.87;13.63;;;;;;;;;;5022645;28;20453;-77
2024/01/20 02:08:36;;;;;;;27.73;15.20;;;;;;;;;;5024624;28;20514;-77
2024/01/20 02:11:02;;;;;;;25.50;13.80;;;;;;;;;;5021721;28;20432;-76
2024/01/20 02:13:28;;;;;;;24.73;13.73;;;;;;;;;;5018921;28;20190;-77
2024/01/20 02:15:55;;;;;;;24.30;13.13;;;;;;;;;;5029074;28;20445;-78
2024/01/20 02:18:24;;;;;;;21.57;13.07;;;;;;;;;;5018043;28;20426;-80
2024/01/20 02:20:50;;;;;;;20.10;12.80;;;;;;;;;;4873412;28;20448;-80
2024/01/20 02:23:16;;;;;;;23.07;12.83;;;;;;;;;;5022850;28;20772;-77
2024/01/20 02:25:43;;;;;;;21.77;13.40;;;;;;;;;;5024322;28;20589;-78
2024/01/20 02:28:09;;;;;;;23.47;13.57;;;;;;;;;;5024553;28;20425;-78
2024/01/20 02:30:35;;;;;;;22.23;12.90;;;;;;;;;;5022335;28;20430;-78
2024/01/20 02:33:01;;;;;;;22.60;13.43;;;;;;;;;;5030989;28;20539;-78
2024/01/20 02:35:27;;;;;;;19.97;12.10;;;;;;;;;;5029184;28;20465;-75
2024/01/20 02:37:54;;;;;;;23.17;13.13;;;;;;;;;;5001753;28;20575;-76
2024/01/20 02:40:20;;;;;;;22.47;12.93;;;;;;;;;;5011695;28;20940;-78
2024/01/20 02:42:46;;;;;;;24.57;12.43;;;;;;;;;;5031490;28;20420;-77
2024/01/20 02:45:12;;;;;;;19.33;12.23;;;;;;;;;;5007907;28;20548;-78
2024/01/20 02:47:38;;;;;;;24.30;14.03;;;;;;;;;;5032980;28;20432;-77
2024/01/20 02:50:04;;;;;;;23.00;12.60;;;;;;;;;;5032490;28;20437;-77
2024/01/20 02:52:31;;;;;;;22.23;13.47;;;;;;;;;;4930277;28;20443;-78
2024/01/20 02:54:57;;;;;;;24.33;13.53;;;;;;;;;;5035075;28;20457;-78
2024/01/20 02:57:24;;;;;;;22.80;13.13;;;;;;;;;;5026029;28;20441;-77
2024/01/20 02:59:50;;;;;;;26.57;15.00;;;;;;;;;;5021675;28;20422;-78
2024/01/20 03:02:16;;;;;;;25.00;14.93;;;;;;;;;;5038689;28;20434;-77
2024/01/20 03:04:43;;;;;;;23.17;13.80;;;;;;;;;;5003088;28;20473;-78
2024/01/20 03:07:09;;;;;;;24.53;14.83;;;;;;;;;;5020143;28;20468;-78
2024/01/20 03:09:36;;;;;;;23.90;13.60;;;;;;;;;;5035099;28;20487;-78
2024/01/20 03:12:02;;;;;;;24.17;13.47;;;;;;;;;;5016314;28;20441;-80
2024/01/20 03:14:28;;;;;;;19.77;12.23;;;;;;;;;;5037698;28;20455;-80
2024/01/20 03:16:54;;;;;;;21.60;12.73;;;;;;;;;;5043137;28;20435;-80
2024/01/20 03:19:20;;;;;;;23.53;13.53;;;;;;;;;;5022142;28;20438;-78
2024/01/20 03:21:46;;;;;;;23.47;13.73;;;;;;;;;;5029630;28;20429;-79
2024/01/20 03:24:12;;;;;;;23.30;13.93;;;;;;;;;;5011743;28;20472;-77
2024/01/20 03:26:39;;;;;;;23.70;13.23;;;;;;;;;;5034724;28;20871;-77
2024/01/20 03:29:05;;;;;;;25.70;13.20;;;;;;;;;;5028193;28;20507;-77
2024/01/20 03:31:31;;;;;;;28.10;13.80;;;;;;;;;;5009774;28;20434;-80
2024/01/20 03:33:57;;;;;;;23.00;12.90;;;;;;;;;;5026640;28;20441;-80
2024/01/20 03:36:23;;;;;;;25.43;14.20;;;;;;;;;;5032642;28;20437;-80
2024/01/20 03:38:50;;;;;;;23.33;13.40;;;;;;;;;;5014068;28;20444;-77
2024/01/20 03:41:16;;;;;;;24.43;13.70;;;;;;;;;;5035670;28;20437;-77
2024/01/20 03:43:42;;;;;;;26.63;14.10;;;;;;;;;;5035354;28;20421;-77
2024/01/20 03:46:08;;;;;;;27.87;15.53;;;;;;;;;;5024476;28;20499;-77
2024/01/20 03:48:34;;;;;;;24.33;13.63;;;;;;;;;;5026149;28;20426;-77
2024/01/20 03:51:02;;;;;;;25.10;13.40;;;;;;;;;;5032770;28;20433;-77
2024/01/20 03:53:28;;;;;;;19.60;11.70;;;;;;;;;;5034097;28;20456;-79
2024/01/20 03:55:55;;;;;;;13.73;9.03;;;;;;;;;;5032081;28;20791;-79
2024/01/20 03:58:21;;;;;;;14.30;8.37;;;;;;;;;;5029246;28;20429;-79
2024/01/20 04:00:47;;;;;;;11.97;7.73;;;;;;;;;;5014748;28;20540;-80
2024/01/20 04:03:13;;;;;;;15.03;9.23;;;;;;;;;;5031648;28;20448;-80
2024/01/20 04:05:40;;;;;;;19.80;10.63;;;;;;;;;;5028606;28;20481;-76
2024/01/20 04:08:06;;;;;;;17.93;10.77;;;;;;;;;;5032014;28;20474;-77
2024/01/20 04:10:32;;;;;;;19.63;11.73;;;;;;;;;;5027135;28;20485;-79
2024/01/20 04:12:58;;;;;;;25.53;14.00;;;;;;;;;;5029056;28;20444;-77
2024/01/20 04:15:25;;;;;;;22.93;12.70;;;;;;;;;;5027813;28;20464;-77
2024/01/20 04:17:52;;;;;;;24.80;13.33;;;;;;;;;;5014240;28;20438;-78
2024/01/20 04:20:18;;;;;;;21.27;13.10;;;;;;;;;;5031749;28;20520;-78
2024/01/20 04:22:44;;;;;;;25.60;13.50;;;;;;;;;;5029429;28;20438;-77
2024/01/20 04:25:11;;;;;;;23.93;12.90;;;;;;;;;;5029712;28;20473;-78
2024/01/20 04:27:42;;;;;;;23.87;13.10;;;;;;;;;;5004038;28;20437;-78
2024/01/20 04:30:10;;;;;;;24.47;13.37;;;;;;;;;;4969487;28;20434;-78
2024/01/20 04:32:36;;;;;;;22.97;13.50;;;;;;;;;;5027087;28;20444;-77
2024/01/20 04:35:03;;;;;;;25.40;13.60;;;;;;;;;;5030426;28;20441;-78
2024/01/20 04:37:29;;;;;;;23.57;13.50;;;;;;;;;;5028908;28;20456;-76
2024/01/20 04:39:56;;;;;;;22.10;12.17;;;;;;;;;;5026996;28;20460;-77
2024/01/20 04:42:22;;;;;;;21.83;12.63;;;;;;;;;;5032805;28;20949;-77
2024/01/20 04:44:48;;;;;;;21.93;13.03;;;;;;;;;;4971905;28;20483;-78
2024/01/20 04:47:15;;;;;;;27.80;13.93;;;;;;;;;;5028500;28;20421;-78
2024/01/20 04:49:41;;;;;;;22.73;13.50;;;;;;;;;;5029170;28;20425;-77
2024/01/20 04:52:07;;;;;;;20.60;12.27;;;;;;;;;;5022594;28;20934;-77
2024/01/20 04:54:33;;;;;;;21.93;13.07;;;;;;;;;;5031153;28;20442;-77
2024/01/20 04:56:59;;;;;;;21.30;12.43;;;;;;;;;;5008386;28;20492;-78
2024/01/20 04:59:26;;;;;;;22.83;14.10;;;;;;;;;;5028394;28;20751;-78
2024/01/20 05:01:52;;;;;;;24.90;13.83;;;;;;;;;;5026233;28;20450;-77
2024/01/20 05:04:19;;;;;;;22.87;13.57;;;;;;;;;;5033114;28;20491;-76
2024/01/20 05:06:45;;;;;;;25.27;13.93;;;;;;;;;;5033348;28;20492;-77
2024/01/20 05:09:15;;;;;;;26.10;14.00;;;;;;;;;;5030064;28;20429;-76
2024/01/20 05:11:41;;;;;;;23.27;13.87;;;;;;;;;;4997512;28;20446;-78
2024/01/20 05:14:08;;;;;;;24.47;14.30;;;;;;;;;;5007914;28;20514;-77
2024/01/20 05:16:34;;;;;;;21.97;13.10;;;;;;;;;;5023140;28;20448;-75
2024/01/20 05:19:00;;;;;;;25.63;14.53;;;;;;;;;;5014498;28;20441;-77
2024/01/20 05:21:27;;;;;;;25.80;14.43;;;;;;;;;;4978412;28;21016;-78
2024/01/20 05:23:53;;;;;;;23.63;14.37;;;;;;;;;;5038643;28;20441;-77
2024/01/20 05:26:19;;;;;;;24.87;14.37;;;;;;;;;;5032073;28;20430;-76
2024/01/20 05:28:45;;;;;;;21.40;13.00;;;;;;;;;;5031865;28;20992;-77
2024/01/20 05:31:11;;;;;;;24.57;14.33;;;;;;;;;;5005801;28;20473;-76
2024/01/20 05:33:37;;;;;;;23.53;13.30;;;;;;;;;;5032767;28;20486;-77
2024/01/20 05:36:04;;;;;;;25.87;15.30;;;;;;;;;;5023476;28;20422;-77
2024/01/20 05:38:30;;;;;;;28.30;16.97;;;;;;;;;;5024196;28;20437;-77
2024/01/20 05:40:56;;;;;;;25.43;14.97;;;;;;;;;;5032862;28;20425;-76
2024/01/20 05:43:22;;;;;;;20.20;14.27;;;;;;;;;;5026411;28;20430;-78
2024/01/20 05:45:49;;;;;;;19.20;12.93;;;;;;;;;;5007348;28;20872;-78
2024/01/20 05:48:15;;;;;;;19.33;13.33;;;;;;;;;;5015090;28;20433;-78
2024/01/20 05:50:41;;;;;;;18.47;12.77;;;;;;;;;;5027255;28;20477;-80
2024/01/20 05:53:07;;;;;;;19.23;12.90;;;;;;;;;;5017226;28;21948;-78
2024/01/20 05:55:34;;;;;;;20.10;13.23;;;;;;;;;;4900148;28;21224;-78
2024/01/20 05:58:00;;;;;;;18.97;13.00;;;;;;;;;;4885489;28;20947;-78
2024/01/20 06:00:26;;;;;;;16.87;11.70;;;;;;;;;;5011998;28;20494;-77
2024/01/20 06:02:52;;;;;;;18.10;12.40;;;;;;;;;;5033911;28;20436;-77
2024/01/20 06:05:18;;;;;;;22.03;13.90;;;;;;;;;;5007079;28;20465;-77
2024/01/20 06:07:44;;;;;;;23.37;14.27;;;;;;;;;;5026219;28;20942;-78
2024/01/20 06:10:10;;;;;;;28.73;14.70;;;;;;;;;;5029179;28;20425;-77
2024/01/20 06:12:36;;;;;;;23.60;15.00;;;;;;;;;;5026363;28;20437;-77
2024/01/20 06:15:03;;;;;;;27.03;15.27;;;;;;;;;;5020692;28;20493;-77
2024/01/20 06:17:30;;;;;;;25.67;15.80;;;;;;;;;;5005640;28;20442;-77
2024/01/20 06:19:56;;;;;;;24.10;14.87;;;;;;;;;;5020440;28;20429;-76
2024/01/20 06:22:23;;;;;;;26.23;15.33;;;;;;;;;;5015586;28;20516;-77
2024/01/20 06:24:49;;;;;;;28.00;15.77;;;;;;;;;;5022551;28;20473;-77
2024/01/20 06:27:15;;;;;;;27.13;15.97;;;;;;;;;;5026494;28;20918;-77
2024/01/20 06:29:41;;;;;;;26.80;15.80;;;;;;;;;;4998990;28;20960;-77
2024/01/20 06:32:08;;;;;;;26.33;16.17;;;;;;;;;;5027696;28;20452;-77
2024/01/20 06:34:34;;;;;;;22.87;14.83;;;;;;;;;;5025644;28;20545;-77
2024/01/20 06:37:00;;;;;;;26.80;16.60;;;;;;;;;;5028795;28;20519;-77
2024/01/20 06:39:26;;;;;;;27.53;16.37;;;;;;;;;;5028186;28;20447;-77
2024/01/20 06:41:52;;;;;;;27.10;16.93;;;;;;;;;;5021899;28;20445;-77
2024/01/20 06:44:21;;;;;;;26.77;16.67;;;;;;;;;;5028115;28;21045;-76
2024/01/20 06:46:48;;;;;;;25.20;15.47;;;;;;;;;;5021513;28;20461;-77
2024/01/20 06:49:14;;;;;;;28.50;16.37;;;;;;;;;;5026532;28;20414;-77
2024/01/20 06:51:43;;;;;;;28.63;16.87;;;;;;;;;;5024962;28;20441;-77
2024/01/20 06:54:09;;;;;;;26.80;16.97;;;;;;;;;;5028478;28;20457;-78
2024/01/20 06:56:35;;;;;;;27.63;16.73;;;;;;;;;;5006943;28;20456;-77
2024/01/20 06:59:01;;;;;;;27.30;16.07;;;;;;;;;;4968745;28;20529;-77
2024/01/20 07:01:28;;;;;;;25.23;16.00;;;;;;;;;;5020302;28;20815;-76
2024/01/20 07:03:54;;;;;;;25.97;16.27;;;;;;;;;;5026822;28;20436;-76
2024/01/20 07:06:24;;;;;;;26.30;16.17;;;;;;;;;;5029852;28;20444;-77
2024/01/20 07:08:50;;;;;;;26.90;16.80;;;;;;;;;;5033470;28;20449;-77
2024/01/20 07:11:16;;;;;;;25.40;16.23;;;;;;;;;;5028837;28;20464;-77
2024/01/20 07:13:42;;;;;;;25.03;15.67;;;;;;;;;;5026386;28;20438;-77
2024/01/20 07:16:12;;;;;;;26.77;16.53;;;;;;;;;;5022002;28;20873;-77
2024/01/20 07:18:42;;;;;;;26.40;16.43;;;;;;;;;;5008568;28;20464;-77
2024/01/20 07:21:08;;;;;;;23.03;15.50;;;;;;;;;;5027415;28;20421;-77
2024/01/20 07:23:34;;;;;;;27.33;17.30;;;;;;;;;;5031346;28;20436;-77
2024/01/20 07:26:00;;;;;;;25.70;16.33;;;;;;;;;;5034622;28;20519;-76
2024/01/20 07:28:27;;;;;;;26.63;16.70;;;;;;;;;;5030131;28;20426;-78
2024/01/20 07:30:53;;;;;;;28.10;17.53;;;;;;;;;;5005569;28;21058;-76
2024/01/20 07:33:19;;;;;;;26.93;17.10;;;;;;;;;;5028995;28;20602;-75
2024/01/20 07:35:45;;;;;;;27.17;16.70;;;;;;;;;;5028199;28;20454;-78
2024/01/20 07:38:12;;;;;;;32.13;18.33;;;;;;;;;;5018746;28;20976;-76
2024/01/20 07:40:39;;;;;;;31.73;18.87;;;;;;;;;;5022006;28;20948;-74
2024/01/20 07:43:05;;;;;;;35.67;20.83;;;;;;;;;;5023637;28;20716;-74
2024/01/20 07:45:31;;;;;;;36.37;21.83;;;;;;;;;;5024607;28;20471;-74
2024/01/20 07:48:00;;;;;;;36.37;20.10;;;;;;;;;;5023616;28;20519;-74
2024/01/20 07:50:27;;;;;;;36.50;20.77;;;;;;;;;;5021410;28;20524;-74
2024/01/20 07:52:53;;;;;;;38.30;21.53;;;;;;;;;;5034563;28;21241;-74
2024/01/20 07:55:19;;;;;;;36.97;21.13;;;;;;;;;;5024715;28;20508;-74
2024/01/20 07:57:45;;;;;;;39.43;22.20;;;;;;;;;;5022492;28;20456;-74
2024/01/20 08:00:12;;;;;;;36.23;20.57;;;;;;;;;;5021509;28;21219;-73
2024/01/20 08:02:39;;;;;;;37.03;20.30;;;;;;;;;;5022453;28;20448;-73
2024/01/20 08:05:05;;;;;;;36.60;20.83;;;;;;;;;;5003103;28;20474;-73
2024/01/20 08:07:32;;;;;;;37.97;21.80;;;;;;;;;;5025330;28;20421;-73
2024/01/20 08:09:59;;;;;;;36.80;20.83;;;;;;;;;;5019002;28;20417;-75
2024/01/20 08:12:25;;;;;;;37.23;20.53;;;;;;;;;;4993355;28;20549;-79
2024/01/20 08:14:51;;;;;;;36.37;21.13;;;;;;;;;;5012748;28;20465;-73
2024/01/20 08:17:18;;;;;;;37.70;21.77;;;;;;;;;;5018613;28;20464;-74
2024/01/20 08:19:45;;;;;;;35.50;21.10;;;;;;;;;;5024236;28;20949;-74
2024/01/20 08:22:13;;;;;;;35.80;20.23;;;;;;;;;;4968639;28;20449;-74
2024/01/20 08:24:39;;;;;;;38.83;20.97;;;;;;;;;;5015331;28;20480;-74
2024/01/20 08:27:05;;;;;;;34.33;20.23;;;;;;;;;;5030009;28;20443;-74
2024/01/20 08:29:31;;;;;;;33.97;20.13;;;;;;;;;;5026273;28;20417;-74
2024/01/20 08:31:58;;;;;;;38.53;21.70;;;;;;;;;;5026474;28;20440;-74
2024/01/20 08:34:24;;;;;;;38.97;21.33;;;;;;;;;;5019531;28;20460;-74
2024/01/20 08:36:50;;;;;;;39.73;22.40;;;;;;;;;;5020743;28;20433;-74
2024/01/20 08:39:18;;;;;;;39.37;22.53;;;;;;;;;;5021990;28;20979;-74
2024/01/20 08:41:45;;;;;;;41.53;23.00;;;;;;;;;;5013141;28;21008;-75
2024/01/20 08:44:11;;;;;;;37.10;21.23;;;;;;;;;;5018202;28;20977;-74
2024/01/20 08:46:37;;;;;;;40.77;21.20;;;;;;;;;;5021299;28;20900;-75
2024/01/20 08:49:03;;;;;;;39.17;22.10;;;;;;;;;;5015449;28;20454;-85
2024/01/20 08:51:29;;;;;;;37.30;21.13;;;;;;;;;;5013201;28;20836;-76
2024/01/20 08:53:56;;;;;;;37.47;22.43;;;;;;;;;;5023267;28;20422;-77
2024/01/20 08:56:22;;;;;;;37.27;21.23;;;;;;;;;;5031770;28;20428;-78
2024/01/20 08:58:48;;;;;;;36.27;21.77;;;;;;;;;;5028944;28;20426;-78
2024/01/20 09:01:16;;;;;;;34.07;21.40;;;;;;;;;;4983887;28;20477;-78
2024/01/20 09:03:42;;;;;;;37.17;20.63;;;;;;;;;;5006929;28;20433;-77
2024/01/20 09:06:08;;;;;;;35.23;20.93;;;;;;;;;;5029024;28;20500;-77
2024/01/20 09:08:34;;;;;;;38.60;21.37;;;;;;;;;;5012713;28;20448;-77
2024/01/20 09:11:01;;;;;;;41.60;22.60;;;;;;;;;;5006137;28;20429;-78
2024/01/20 09:13:27;;;;;;;34.63;20.97;;;;;;;;;;5026903;28;20437;-77
2024/01/20 09:15:54;;;;;;;43.37;23.27;;;;;;;;;;5000821;28;20442;-78
2024/01/20 09:18:20;;;;;;;40.17;24.53;;;;;;;;;;5005572;28;20453;-78
2024/01/20 09:20:46;;;;;;;42.80;25.20;;;;;;;;;;5029437;28;20438;-78
2024/01/20 09:23:12;;;;;;;44.10;25.07;;;;;;;;;;5024030;28;20516;-78
2024/01/20 09:25:39;;;;;;;42.17;25.83;;;;;;;;;;5017926;28;20996;-77
2024/01/20 09:28:05;;;;;;;43.73;25.17;;;;;;;;;;5009630;28;21094;-77
2024/01/20 09:30:35;;;;;;;43.50;24.07;;;;;;;;;;5029754;28;20507;-78
2024/01/20 09:33:02;;;;;;;41.67;24.20;;;;;;;;;;5030848;28;20456;-78
2024/01/20 09:35:28;;;;;;;46.63;26.47;;;;;;;;;;5026612;28;20477;-78
2024/01/20 09:37:54;;;;;;;45.63;26.00;;;;;;;;;;5007867;28;20445;-78
2024/01/20 09:40:20;;;;;;;43.33;25.20;;;;;;;;;;5025581;28;20524;-78
2024/01/20 09:42:47;;;;;;;44.63;25.33;;;;;;;;;;5030136;28;20456;-78
2024/01/20 09:45:13;;;;;;;44.93;25.53;;;;;;;;;;5033830;28;20984;-78
2024/01/20 09:47:39;;;;;;;52.67;26.13;;;;;;;;;;5028103;28;20437;-78
2024/01/20 09:50:06;;;;;;;53.87;26.07;;;;;;;;;;5019521;28;20885;-77
2024/01/20 09:52:32;;;;;;;53.23;26.07;;;;;;;;;;5030453;28;20512;-78
2024/01/20 09:55:12;;;;;;;49.07;25.33;;;;;;;;;;5023824;28;20616;-78
2024/01/20 09:57:39;;;;;;;47.60;25.33;;;;;;;;;;5021270;28;20504;-78
2024/01/20 10:00:06;;;;;;;60.40;28.67;;;;;;;;;;5016456;28;20460;-78
2024/01/20 10:02:38;;;;;;;51.03;25.97;;;;;;;;;;5002438;28;20557;-77
2024/01/20 10:05:09;;;;;;;50.80;24.97;;;;;;;;;;5022001;28;20486;-78
2024/01/20 10:07:35;;;;;;;54.77;27.53;;;;;;;;;;5009590;28;20422;-78
2024/01/20 10:10:02;;;;;;;62.47;30.17;;;;;;;;;;5025753;28;20801;-78
2024/01/20 10:12:30;;;;;;;52.93;27.50;;;;;;;;;;5029162;28;20425;-78
2024/01/20 10:14:56;;;;;;;56.53;27.50;;;;;;;;;;5028277;28;20458;-78
2024/01/20 10:17:22;;;;;;;53.37;27.53;;;;;;;;;;5025273;28;20460;-78
2024/01/20 10:19:48;;;;;;;56.73;27.20;;;;;;;;;;5018629;28;21019;-78
2024/01/20 10:22:17;;;;;;;54.67;27.13;;;;;;;;;;5026804;28;20933;-78
2024/01/20 10:24:51;;;;;;;58.87;28.43;;;;;;;;;;5003410;28;20885;-78
2024/01/20 10:27:18;;;;;;;59.47;30.53;;;;;;;;;;5026956;28;20498;-77
2024/01/20 10:29:45;;;;;;;60.80;29.53;;;;;;;;;;5024983;28;20433;-78
2024/01/20 10:32:11;;;;;;;60.47;29.47;;;;;;;;;;5032229;28;20433;-78
2024/01/20 10:34:37;;;;;;;65.33;30.43;;;;;;;;;;5020626;28;20506;-75
2024/01/20 10:37:12;;;;;;;64.80;31.20;;;;;;;;;;5015458;28;20448;-78
2024/01/20 10:39:41;;;;;;;86.60;32.57;;;;;;;;;;5029045;28;20194;-78
2024/01/20 10:42:10;;;;;;;81.33;31.03;;;;;;;;;;5018277;28;20416;-76
2024/01/20 10:44:38;;;;;;;81.77;30.20;;;;;;;;;;5021611;28;20285;-77
2024/01/20 10:47:10;;;;;;;101.53;31.07;;;;;;;;;;5028267;28;20423;-76
2024/01/20 10:49:38;;;;;;;90.87;29.83;;;;;;;;;;5030624;28;20508;-74
2024/01/20 10:52:04;;;;;;;74.00;30.73;;;;;;;;;;5021899;28;20433;-77
2024/01/20 10:54:30;;;;;;;102.20;31.60;;;;;;;;;;5035979;28;20471;-76
2024/01/20 10:56:57;;;;;;;152.23;32.73;;;;;;;;;;5037190;28;20456;-75
2024/01/20 10:59:25;;;;;;;71.23;30.20;;;;;;;;;;5010988;28;20539;-76
2024/01/20 11:01:52;;;;;;;77.20;31.70;;;;;;;;;;5007043;28;20659;-76
2024/01/20 11:04:22;;;;;;;82.13;30.40;;;;;;;;;;5030570;28;20547;-76
2024/01/20 11:06:48;;;;;;;67.10;30.07;;;;;;;;;;5024178;28;20894;-76
2024/01/20 11:09:21;;;;;;;65.70;29.53;;;;;;;;;;5017237;28;20640;-76
2024/01/20 11:12:00;;;;;;;77.10;32.60;;;;;;;;;;5006644;28;20183;-76
2024/01/20 11:14:32;;;;;;;59.07;30.10;;;;;;;;;;5024463;28;20441;-76
2024/01/20 11:17:09;;;;;;;63.97;30.33;;;;;;;;;;5025873;28;20417;-76
2024/01/20 11:19:35;;;;;;;67.97;31.30;;;;;;;;;;5029090;28;20448;-76
2024/01/20 11:22:01;;;;;;;60.63;30.27;;;;;;;;;;5015195;28;20194;-75
2024/01/20 11:24:40;;;;;;;67.63;32.10;;;;;;;;;;5038835;28;20500;-77
2024/01/20 11:27:06;;;;;;;58.90;29.03;;;;;;;;;;5024738;28;20554;-77
2024/01/20 11:29:32;;;;;;;60.27;29.23;;;;;;;;;;5028585;28;20194;-77
2024/01/20 11:31:59;;;;;;;56.83;29.23;;;;;;;;;;5028151;28;21410;-77
2024/01/20 11:34:25;;;;;;;61.07;31.07;;;;;;;;;;5030272;28;20245;-77
2024/01/20 11:36:52;;;;;;;62.13;30.73;;;;;;;;;;5016784;28;20191;-77
2024/01/20 11:39:19;;;;;;;80.90;34.23;;;;;;;;;;5022172;28;20583;-77
2024/01/20 11:41:46;;;;;;;80.43;34.30;;;;;;;;;;5028246;28;20233;-81
2024/01/20 11:44:12;;;;;;;64.23;30.53;;;;;;;;;;5005574;28;20225;-76
2024/01/20 11:46:39;;;;;;;59.70;29.37;;;;;;;;;;5023885;28;20251;-75
2024/01/20 11:49:05;;;;;;;58.93;30.83;;;;;;;;;;5018684;28;20435;-77
2024/01/20 11:51:31;;;;;;;59.60;28.97;;;;;;;;;;5025198;28;20662;-77
2024/01/20 11:53:58;;;;;;;64.77;31.60;;;;;;;;;;5028166;28;20795;-76
2024/01/20 11:56:24;;;;;;;58.87;31.00;;;;;;;;;;5028981;28;20545;-77
2024/01/20 11:58:51;;;;;;;63.33;31.63;;;;;;;;;;5031071;28;20190;-78
2024/01/20 12:01:17;;;;;;;74.47;33.93;;;;;;;;;;5025132;28;20505;-81
2024/01/20 12:03:43;;;;;;;61.67;30.90;;;;;;;;;;5005118;28;20195;-75
2024/01/20 12:06:09;;;;;;;59.23;29.77;;;;;;;;;;5028483;28;20685;-71
2024/01/20 12:08:36;;;;;;;66.07;31.33;;;;;;;;;;5027813;28;20244;-71
2024/01/20 12:11:02;;;;;;;68.60;30.63;;;;;;;;;;5025618;28;20269;-74
2024/01/20 12:13:32;;;;;;;60.43;31.37;;;;;;;;;;5027653;28;20194;-71
2024/01/20 12:15:59;;;;;;;56.43;29.60;;;;;;;;;;5022364;28;21007;-73
2024/01/20 12:18:25;;;;;;;59.33;28.57;;;;;;;;;;5023394;28;20183;-73
2024/01/20 12:20:52;;;;;;;57.53;30.27;;;;;;;;;;5030388;28;20190;-73
2024/01/20 12:23:19;;;;;;;58.47;29.67;;;;;;;;;;5028994;28;20185;-73
2024/01/20 12:25:45;;;;;;;56.97;30.80;;;;;;;;;;5027577;28;20516;-73
2024/01/20 12:28:11;;;;;;;57.93;30.30;;;;;;;;;;5027258;28;20182;-73
2024/01/20 12:30:37;;;;;;;58.37;29.87;;;;;;;;;;5021109;28;20742;-73
2024/01/20 12:33:03;;;;;;;55.70;30.43;;;;;;;;;;5026419;28;20218;-73
2024/01/20 12:35:29;;;;;;;60.30;29.93;;;;;;;;;;5025286;28;20555;-69
2024/01/20 12:37:56;;;;;;;59.20;34.03;;;;;;;;;;5042463;28;20672;-76
2024/01/20 12:40:24;;;;;;;64.70;32.20;;;;;;;;;;5030808;28;20187;-74
2024/01/20 12:42:51;;;;;;;69.90;32.83;;;;;;;;;;5021848;28;20951;-74
2024/01/20 12:45:21;;;;;;;59.73;29.67;;;;;;;;;;5020682;28;20223;-73
2024/01/20 12:47:49;;;;;;;66.57;33.20;;;;;;;;;;5026070;28;20206;-73
2024/01/20 12:50:15;;;;;;;71.57;32.20;;;;;;;;;;5024174;28;20688;-72
2024/01/20 12:52:42;;;;;;;75.07;41.30;;;;;;;;;;5021893;28;20179;-77
2024/01/20 12:55:08;;;;;;;69.07;34.67;;;;;;;;;;5020082;28;20213;-76
2024/01/20 12:57:34;;;;;;;61.07;31.67;;;;;;;;;;5019097;28;20560;-75
2024/01/20 13:00:02;;;;;;;61.87;31.23;;;;;;;;;;5028070;28;20217;-76
2024/01/20 13:02:28;;;;;;;67.20;33.20;;;;;;;;;;5023152;28;20191;-77
2024/01/20 13:04:54;;;;;;;63.10;32.63;;;;;;;;;;5017292;28;20217;-77
2024/01/20 13:07:22;;;;;;;57.50;30.17;;;;;;;;;;5025417;28;20639;-77
2024/01/20 13:09:48;;;;;;;57.33;30.30;;;;;;;;;;5028947;28;20188;-76
2024/01/20 13:12:14;;;;;;;61.70;31.73;;;;;;;;;;5017714;28;20225;-75
2024/01/20 13:14:41;;;;;;;65.67;31.73;;;;;;;;;;5028759;28;20206;-75
2024/01/20 13:17:07;;;;;;;62.33;32.67;;;;;;;;;;5011515;28;20207;-75
2024/01/20 13:19:33;;;;;;;66.87;32.93;;;;;;;;;;5022472;28;20643;-75
2024/01/20 13:21:59;;;;;;;62.50;32.67;;;;;;;;;;5028409;28;20281;-76
2024/01/20 13:24:25;;;;;;;57.93;31.70;;;;;;;;;;5032406;28;20213;-76
2024/01/20 13:26:52;;;;;;;56.63;30.33;;;;;;;;;;5019918;28;20216;-76
2024/01/20 13:29:18;;;;;;;51.83;28.60;;;;;;;;;;5030377;28;20174;-76
2024/01/20 13:31:44;;;;;;;53.77;30.03;;;;;;;;;;5016206;28;20520;-77
2024/01/20 13:34:10;;;;;;;51.57;29.23;;;;;;;;;;5017126;28;20618;-77
2024/01/20 13:36:36;;;;;;;59.50;32.57;;;;;;;;;;5021469;28;20183;-79
2024/01/20 13:39:04;;;;;;;54.90;30.33;;;;;;;;;;5027880;28;20198;-78
2024/01/20 13:41:31;;;;;;;57.63;31.27;;;;;;;;;;5015248;28;20186;-76
2024/01/20 13:43:57;;;;;;;58.63;31.67;;;;;;;;;;5017183;28;20182;-76
2024/01/20 13:46:24;;;;;;;60.77;32.43;;;;;;;;;;5028293;28;20187;-75
2024/01/20 13:48:50;;;;;;;60.83;30.83;;;;;;;;;;4929928;28;20598;-75
2024/01/20 13:51:17;;;;;;;59.33;30.47;;;;;;;;;;5022963;28;20273;-76
2024/01/20 13:53:43;;;;;;;63.40;32.20;;;;;;;;;;5028870;28;20182;-76
2024/01/20 13:56:11;;;;;;;57.33;30.37;;;;;;;;;;5020519;28;20201;-76
2024/01/20 13:58:37;;;;;;;58.30;30.57;;;;;;;;;;5021989;28;20179;-75
2024/01/20 14:01:04;;;;;;;64.87;30.30;;;;;;;;;;5020755;28;20724;-76
2024/01/20 14:03:31;;;;;;;57.93;30.93;;;;;;;;;;5023897;28;20193;-76
2024/01/20 14:05:57;;;;;;;53.97;29.50;;;;;;;;;;5022246;28;20219;-82
2024/01/20 14:08:24;;;;;;;58.90;31.43;;;;;;;;;;5021852;28;20202;-80
2024/01/20 14:10:51;;;;;;;59.90;30.03;;;;;;;;;;5025734;28;20221;-80
2024/01/20 14:13:18;;;;;;;57.83;29.43;;;;;;;;;;5021745;28;20213;-82